Time;durP1;ratioP1;P1;durP2;ratioP2;P2;SDS_P1;SDS_P2;PMS_P1;PMS_P2;Temp;Humidity;BMP_temperature;BMP_pressure;BME280_temperature;BME280_humidity;BME280_pressure;Samples;Min_cycle;Max_cycle;Signal;HPM_P1;HPM_P2
2023/08/16 00:01:37;;;;;;;12.30;8.13;;;;;;;25.13;59.54;96981.97;5069553;28;20209;-74
2023/08/16 00:04:04;;;;;;;9.90;7.40;;;;;;;25.35;59.39;96987.50;5067859;28;20224;-74
2023/08/16 00:06:31;;;;;;;8.93;7.23;;;;;;;25.41;59.84;96978.09;5069260;28;20529;-74
2023/08/16 00:08:58;;;;;;;10.33;7.03;;;;;;;25.43;59.73;96984.06;5069001;28;20193;-74
2023/08/16 00:11:27;;;;;;;9.17;7.63;;;;;;;25.43;59.86;96982.22;5067293;28;20265;-74
2023/08/16 00:13:55;;;;;;;11.07;7.80;;;;;;;25.51;60.44;96981.44;5068169;28;20247;-74
2023/08/16 00:16:22;;;;;;;10.27;7.47;;;;;;;25.16;60.76;96982.50;5068898;28;20193;-73
2023/08/16 00:18:50;;;;;;;10.63;7.40;;;;;;;25.18;61.50;96974.38;5067468;28;20188;-74
2023/08/16 00:21:17;;;;;;;9.67;7.43;;;;;;;24.94;61.81;96973.28;5068305;28;20281;-75
2023/08/16 00:23:44;;;;;;;10.23;7.33;;;;;;;25.01;61.81;96976.97;5068677;28;20322;-74
2023/08/16 00:26:11;;;;;;;12.53;8.70;;;;;;;24.87;62.48;96992.66;5068459;28;20200;-73
2023/08/16 00:28:39;;;;;;;10.70;9.40;;;;;;;24.50;63.80;96976.22;5068737;28;20192;-74
2023/08/16 00:31:06;;;;;;;11.77;9.70;;;;;;;24.76;63.19;96983.16;5066847;28;20192;-72
2023/08/16 00:33:34;;;;;;;14.60;10.63;;;;;;;24.84;63.01;96979.72;5066842;28;20192;-75
2023/08/16 00:36:01;;;;;;;12.47;9.70;;;;;;;25.05;61.94;96980.13;5067182;28;20235;-73
2023/08/16 00:38:28;;;;;;;13.77;10.90;;;;;;;25.07;62.04;96959.59;5066717;28;20270;-75
2023/08/16 00:40:57;;;;;;;15.57;10.67;;;;;;;24.96;63.13;96981.06;5068436;28;20691;-74
2023/08/16 00:43:24;;;;;;;15.00;10.70;;;;;;;25.03;62.80;96976.81;5068713;28;20216;-74
2023/08/16 00:45:52;;;;;;;17.63;11.63;;;;;;;24.84;63.27;96975.25;5068384;28;20194;-74
2023/08/16 00:48:20;;;;;;;16.80;12.20;;;;;;;24.72;63.71;96988.91;5067105;28;20192;-73
2023/08/16 00:50:48;;;;;;;14.87;10.77;;;;;;;24.96;63.10;96989.88;5066925;28;20189;-76
2023/08/16 00:53:18;;;;;;;13.27;10.33;;;;;;;24.83;62.51;96944.44;5067103;28;20202;-74
2023/08/16 00:55:46;;;;;;;14.63;9.83;;;;;;;24.98;63.20;96995.00;5067788;28;20219;-74
2023/08/16 00:58:14;;;;;;;12.03;10.27;;;;;;;24.89;63.70;96995.97;5066760;28;20230;-73
2023/08/16 01:00:42;;;;;;;12.07;10.20;;;;;;;24.91;62.98;97001.94;5066378;28;20195;-73
2023/08/16 01:03:09;;;;;;;11.27;8.73;;;;;;;24.23;64.16;97001.03;5066173;28;20228;-74
2023/08/16 01:05:37;;;;;;;12.70;10.23;;;;;;;24.36;64.18;97008.56;5066481;28;20199;-73
2023/08/16 01:08:04;;;;;;;12.20;9.40;;;;;;;24.58;63.57;97003.56;5067843;28;20269;-74
2023/08/16 01:10:55;;;;;;;12.50;8.97;;;;;;;24.81;63.05;97009.19;5067845;28;20617;-74
2023/08/16 01:13:49;;;;;;;9.63;8.63;;;;;;;24.78;62.68;97007.69;5056992;28;20257;-72
2023/08/16 01:16:18;;;;;;;12.73;8.70;;;;;;;24.69;62.74;97005.94;5049791;28;20192;-76
2023/08/16 01:18:46;;;;;;;10.77;8.07;;;;;;;24.73;62.27;97009.97;5065963;28;20201;-74
2023/08/16 01:21:15;;;;;;;11.37;7.23;;;;;;;24.65;62.27;97003.75;5067532;28;20209;-77
2023/08/16 01:23:43;;;;;;;9.57;7.57;;;;;;;24.76;62.59;97017.59;5066023;28;20215;-73
2023/08/16 01:26:32;;;;;;;9.33;7.67;;;;;;;24.69;62.81;97021.03;5065764;28;20194;-76
2023/08/16 01:29:00;;;;;;;9.17;7.27;;;;;;;24.74;62.85;97022.22;5067553;28;20192;-73
2023/08/16 01:31:27;;;;;;;11.60;7.60;;;;;;;24.48;62.99;97007.31;5067855;28;20192;-75
2023/08/16 01:33:55;;;;;;;11.60;7.70;;;;;;;24.62;62.38;97018.16;5070158;28;20187;-79
2023/08/16 01:36:22;;;;;;;7.07;6.37;;;;;;;24.63;62.70;97003.91;5069358;28;20241;-75
2023/08/16 01:38:49;;;;;;;9.53;7.23;;;;;;;24.67;62.15;97018.50;5068730;28;20686;-76
2023/08/16 01:41:35;;;;;;;8.13;7.20;;;;;;;24.57;63.21;97016.94;5070798;28;20207;-80
2023/08/16 01:44:02;;;;;;;10.57;6.97;;;;;;;24.53;63.35;97020.91;5067778;28;20223;-79
2023/08/16 01:46:33;;;;;;;11.87;7.13;;;;;;;24.57;62.84;97011.66;5067259;28;20614;-82
2023/08/16 01:49:01;;;;;;;8.93;7.43;;;;;;;24.58;62.61;97010.69;5065897;28;20716;-81
2023/08/16 01:51:28;;;;;;;11.50;8.13;;;;;;;24.55;63.43;97008.34;5067267;28;20202;-79
2023/08/16 01:53:55;;;;;;;10.13;8.20;;;;;;;24.63;62.79;97011.88;5067235;28;20250;-84
2023/08/16 01:56:23;;;;;;;10.27;7.33;;;;;;;24.46;62.60;96977.53;5065396;28;20216;-77
2023/08/16 01:58:50;;;;;;;12.93;7.37;;;;;;;24.45;63.74;97013.75;5065789;28;20190;-73
2023/08/16 02:01:18;;;;;;;10.50;7.70;;;;;;;24.64;62.58;97007.41;5066507;28;20182;-72
2023/08/16 02:03:45;;;;;;;8.77;6.90;;;;;;;24.56;62.66;97004.72;5067591;28;20217;-73
2023/08/16 02:06:13;;;;;;;8.47;7.33;;;;;;;24.46;63.75;97007.44;5067674;28;20239;-73
2023/08/16 02:08:40;;;;;;;9.43;7.40;;;;;;;24.47;63.10;97005.66;5067752;28;20190;-73
2023/08/16 02:11:07;;;;;;;10.60;6.70;;;;;;;24.53;62.59;96997.91;5069383;28;20273;-79
2023/08/16 02:13:35;;;;;;;10.43;7.50;;;;;;;24.50;63.12;96994.75;5068273;28;20761;-74
2023/08/16 02:16:03;;;;;;;8.13;6.77;;;;;;;24.55;63.32;96992.44;5065465;28;20681;-74
2023/08/16 02:18:31;;;;;;;15.23;8.27;;;;;;;24.33;64.00;96988.53;5065727;28;20284;-77
2023/08/16 02:20:58;;;;;;;25.07;10.80;;;;;;;24.27;63.48;96985.66;5048542;28;20225;-74
2023/08/16 02:23:26;;;;;;;11.17;8.70;;;;;;;23.81;65.33;96987.63;5066883;28;20222;-77
2023/08/16 02:25:53;;;;;;;15.97;8.47;;;;;;;23.71;66.05;96986.03;5066583;28;20234;-79
2023/08/16 02:28:23;;;;;;;12.17;7.83;;;;;;;23.59;66.16;96972.22;5066262;28;20251;-75
2023/08/16 02:30:50;;;;;;;11.87;7.77;;;;;;;23.89;65.54;96979.75;5066709;28;20213;-88
2023/08/16 02:33:17;;;;;;;10.23;7.60;;;;;;;23.80;65.77;96975.34;5065961;28;20190;-85
2023/08/16 02:35:47;;;;;;;9.00;7.30;;;;;;;23.37;66.65;96972.66;5067063;28;20184;-83
2023/08/16 02:38:14;;;;;;;11.17;8.00;;;;;;;23.52;66.02;96981.72;5075806;28;20189;-85
2023/08/16 02:40:41;;;;;;;10.03;8.13;;;;;;;23.64;65.88;96975.22;5078113;28;20189;-85
2023/08/16 02:43:11;;;;;;;8.97;7.73;;;;;;;23.72;65.33;96967.38;5074140;28;20240;-86
2023/08/16 02:45:38;;;;;;;14.33;8.20;;;;;;;23.84;65.39;96967.97;5073584;28;20239;-87
2023/08/16 02:48:08;;;;;;;12.73;7.67;;;;;;;23.94;65.09;96976.66;5070097;28;20664;-75
2023/08/16 02:50:35;;;;;;;12.23;8.13;;;;;;;24.12;64.43;96983.59;5069268;28;20572;-84
2023/08/16 02:53:03;;;;;;;9.30;7.70;;;;;;;23.89;65.42;96977.09;5070629;28;20801;-87
2023/08/16 02:55:30;;;;;;;13.43;9.27;;;;;;;23.80;65.18;96938.31;5070594;28;20185;-83
2023/08/16 02:57:59;;;;;;;13.37;8.37;;;;;;;24.19;63.96;96967.94;5070284;28;20271;-81
2023/08/16 03:00:26;;;;;;;13.73;9.07;;;;;;;24.17;64.44;96976.00;5070615;28;20282;-86
2023/08/16 03:02:53;;;;;;;10.57;7.87;;;;;;;23.80;64.81;96938.31;5088082;28;20248;-81
2023/08/16 03:05:21;;;;;;;12.47;8.57;;;;;;;24.05;64.98;96985.19;5084267;28;20186;-79
2023/08/16 03:07:48;;;;;;;12.43;8.20;;;;;;;23.46;66.72;96979.69;5073491;28;20219;-83
2023/08/16 03:10:17;;;;;;;11.93;8.33;;;;;;;23.46;67.40;96963.84;5075551;28;20640;-81
2023/08/16 03:12:44;;;;;;;14.93;8.20;;;;;;;23.59;66.66;96969.59;5072027;28;20275;-73
2023/08/16 03:15:12;;;;;;;9.37;8.37;;;;;;;23.06;67.92;96971.34;5071592;28;20193;-75
2023/08/16 03:17:39;;;;;;;9.90;8.47;;;;;;;22.56;69.66;96942.66;5070645;28;20192;-81
2023/08/16 03:20:08;;;;;;;11.57;8.93;;;;;;;22.36;70.88;96967.44;5074369;28;20212;-86
2023/08/16 03:22:36;;;;;;;12.83;8.87;;;;;;;22.28;71.57;96959.44;5062058;28;20670;-86
2023/08/16 03:25:04;;;;;;;11.60;9.10;;;;;;;22.38;71.10;96957.56;5071648;28;20260;-82
2023/08/16 03:27:33;;;;;;;10.30;8.33;;;;;;;22.57;70.05;96957.50;5070631;28;20568;-79
2023/08/16 03:30:01;;;;;;;10.87;8.23;;;;;;;22.84;69.73;96953.22;5068227;28;20274;-75
2023/08/16 03:32:32;;;;;;;11.77;9.10;;;;;;;23.03;68.76;96955.75;5069992;28;20199;-74
2023/08/16 03:35:00;;;;;;;11.53;9.03;;;;;;;23.11;68.93;96958.50;5069415;28;20232;-73
2023/08/16 03:37:31;;;;;;;12.90;9.43;;;;;;;23.29;67.83;96962.81;5069115;28;20672;-75
2023/08/16 03:39:59;;;;;;;13.50;9.23;;;;;;;23.31;67.74;96965.31;5068239;28;20185;-79
2023/08/16 03:42:26;;;;;;;15.67;9.07;;;;;;;23.44;67.77;96979.03;5069144;28;20199;-75
2023/08/16 03:44:56;;;;;;;12.70;9.30;;;;;;;23.22;67.85;96963.56;5068447;28;20260;-74
2023/08/16 03:47:23;;;;;;;13.23;8.73;;;;;;;22.86;69.16;96977.69;5067839;28;20254;-75
2023/08/16 03:49:53;;;;;;;18.43;9.50;;;;;;;22.37;70.98;96974.41;5068650;28;20749;-75
2023/08/16 03:52:20;;;;;;;15.23;9.43;;;;;;;22.18;72.06;96976.25;5051484;28;20223;-77
2023/08/16 03:54:50;;;;;;;17.50;10.27;;;;;;;22.23;71.58;96982.78;5069243;28;20756;-76
2023/08/16 03:57:18;;;;;;;9.63;8.43;;;;;;;22.23;71.59;96980.16;5068937;28;20188;-74
2023/08/16 03:59:45;;;;;;;14.57;9.30;;;;;;;22.42;71.21;96980.06;5069121;28;20192;-73
2023/08/16 04:02:12;;;;;;;15.57;9.63;;;;;;;22.89;70.18;96978.25;5068116;28;20185;-73
2023/08/16 04:04:39;;;;;;;15.33;9.53;;;;;;;23.13;69.29;96993.53;5070641;28;20251;-76
2023/08/16 04:07:06;;;;;;;16.40;9.87;;;;;;;23.23;68.70;96966.06;5069976;28;20223;-75
2023/08/16 04:09:34;;;;;;;16.60;9.57;;;;;;;23.56;67.24;96977.81;5068855;28;20194;-75
2023/08/16 04:12:03;;;;;;;13.63;9.43;;;;;;;23.85;66.35;96991.63;5069660;28;20186;-73
2023/08/16 04:14:30;;;;;;;14.77;10.90;;;;;;;23.91;66.04;96996.28;5060890;28;20197;-86
2023/08/16 04:16:57;;;;;;;18.73;9.47;;;;;;;23.43;67.92;96995.88;5078265;28;20186;-84
2023/08/16 04:19:24;;;;;;;14.83;9.93;;;;;;;23.96;66.09;97004.63;5078086;28;20201;-87
2023/08/16 04:21:51;;;;;;;12.10;9.20;;;;;;;24.17;65.29;96999.81;5078147;28;20190;-84
2023/08/16 04:24:18;;;;;;;14.87;9.03;;;;;;;24.64;63.74;97002.09;5076500;28;20229;-77
2023/08/16 04:26:46;;;;;;;11.27;8.37;;;;;;;24.72;63.35;97010.09;5069520;28;20652;-77
2023/08/16 04:29:15;;;;;;;12.50;9.17;;;;;;;25.07;62.87;97004.66;5036263;28;20207;-76
2023/08/16 04:31:43;;;;;;;11.80;9.33;;;;;;;25.27;62.21;97007.84;5052735;28;20268;-75
2023/08/16 04:34:10;;;;;;;10.50;8.93;;;;;;;25.39;61.02;97010.03;5067057;28;20576;-86
2023/08/16 04:36:37;;;;;;;14.57;9.03;;;;;;;25.02;61.89;96985.72;5067152;28;20710;-83
2023/08/16 04:39:05;;;;;;;11.97;8.30;;;;;;;24.97;62.23;96991.53;5068716;28;20692;-88
2023/08/16 04:41:32;;;;;;;12.50;8.77;;;;;;;25.46;60.41;97012.91;5067383;28;20188;-88
2023/08/16 04:43:59;;;;;;;11.50;8.70;;;;;;;25.73;60.66;97029.38;5067117;28;20249;-76
2023/08/16 04:46:30;;;;;;;12.00;8.83;;;;;;;25.64;59.99;97025.03;5067282;28;20182;-74
2023/08/16 04:48:58;;;;;;;14.43;9.50;;;;;;;25.64;59.52;97040.97;5067644;28;20193;-75
2023/08/16 04:51:26;;;;;;;15.00;9.83;;;;;;;25.76;59.22;97018.41;5068589;28;20193;-78
2023/08/16 04:53:53;;;;;;;15.50;8.70;;;;;;;25.55;60.50;97035.81;5067413;28;20557;-75
2023/08/16 04:56:23;;;;;;;21.87;9.30;;;;;;;25.34;60.93;97027.44;5067140;28;20193;-78
2023/08/16 04:58:50;;;;;;;16.07;9.97;;;;;;;25.22;60.46;97016.31;5069774;28;20193;-87
2023/08/16 05:01:21;;;;;;;11.60;8.70;;;;;;;24.62;62.67;97018.16;5071094;28;20208;-85
2023/08/16 05:03:52;;;;;;;15.07;9.37;;;;;;;24.39;63.60;97027.63;5069587;28;20220;-86
2023/08/16 05:06:20;;;;;;;17.20;9.83;;;;;;;24.33;64.18;97028.25;5071112;28;20656;-87
2023/08/16 05:08:48;;;;;;;12.80;9.20;;;;;;;23.93;65.60;97022.59;5072396;28;20191;-83
2023/08/16 05:11:17;;;;;;;15.63;9.73;;;;;;;24.22;65.44;97026.66;5072646;28;20223;-75
2023/08/16 05:13:45;;;;;;;14.97;11.90;;;;;;;24.19;64.90;97021.66;5072011;28;20193;-85
2023/08/16 05:16:12;;;;;;;13.57;9.63;;;;;;;24.20;65.05;97009.28;5067783;28;20275;-85
2023/08/16 05:18:40;;;;;;;14.60;10.37;;;;;;;24.36;64.95;97019.97;5049748;28;20620;-85
2023/08/16 05:21:07;;;;;;;21.60;11.60;;;;;;;24.59;64.36;97015.81;5068749;28;20243;-87
2023/08/16 05:23:34;;;;;;;17.90;12.63;;;;;;;24.64;64.10;97016.19;5076748;28;20710;-75
2023/08/16 05:26:02;;;;;;;13.40;10.27;;;;;;;24.63;63.82;97013.66;5077635;28;20187;-79
2023/08/16 05:28:29;;;;;;;14.20;9.53;;;;;;;24.79;63.59;97027.06;5078232;28;20184;-82
2023/08/16 05:31:09;;;;;;;14.43;10.37;;;;;;;25.00;63.44;97016.88;5063531;28;20474;-78
2023/08/16 05:33:37;;;;;;;13.07;10.00;;;;;;;25.17;62.58;97010.66;5058852;28;20239;-80
2023/08/16 05:36:05;;;;;;;13.80;11.17;;;;;;;25.26;61.74;97016.81;5054764;28;20808;-81
2023/08/16 05:38:33;;;;;;;12.57;9.83;;;;;;;25.23;62.20;97023.25;5065966;28;20266;-83
2023/08/16 05:41:03;;;;;;;13.37;10.40;;;;;;;25.43;61.13;97024.66;5072800;28;20275;-84
2023/08/16 05:43:32;;;;;;;21.37;12.37;;;;;;;25.53;61.14;97030.66;5065967;28;20672;-81
2023/08/16 05:46:00;;;;;;;15.33;10.37;;;;;;;25.44;60.99;97018.38;5064879;28;20573;-74
2023/08/16 05:48:28;;;;;;;14.27;9.80;;;;;;;25.42;61.25;97030.13;5065710;28;20200;-82
2023/08/16 05:50:55;;;;;;;16.73;9.97;;;;;;;25.32;61.32;97001.09;5066356;28;20262;-78
2023/08/16 05:53:26;;;;;;;13.37;9.33;;;;;;;25.57;61.26;97026.72;5064223;28;20199;-81
2023/08/16 05:55:53;;;;;;;15.83;9.93;;;;;;;25.79;60.40;97034.03;5065087;28;20213;-81
2023/08/16 05:58:20;;;;;;;13.97;10.40;;;;;;;25.24;62.48;97032.03;5065345;28;20193;-78
2023/08/16 06:00:48;;;;;;;15.33;10.23;;;;;;;25.35;62.57;97021.97;5065831;28;20193;-83
2023/08/16 06:03:15;;;;;;;20.63;13.97;;;;;;;25.18;62.66;97019.44;5065481;28;20648;-81
2023/08/16 06:05:43;;;;;;;18.03;12.73;;;;;;;24.84;62.92;96956.69;5066282;28;20319;-79
2023/08/16 06:08:10;;;;;;;17.63;12.43;;;;;;;25.22;62.72;97002.22;5066258;28;20189;-76
2023/08/16 06:10:37;;;;;;;18.30;12.53;;;;;;;25.35;61.99;97003.41;5065211;28;20204;-80
2023/08/16 06:13:04;;;;;;;16.50;10.90;;;;;;;25.81;60.55;97009.97;5066261;28;20216;-83
2023/08/16 06:15:31;;;;;;;15.70;10.67;;;;;;;25.76;60.46;96965.34;5048131;28;20273;-83
2023/08/16 06:17:58;;;;;;;15.87;10.03;;;;;;;26.09;60.01;97013.16;5065944;28;20201;-82
2023/08/16 06:20:25;;;;;;;18.97;12.23;;;;;;;26.02;60.54;97017.44;5065899;28;20185;-81
2023/08/16 06:22:55;;;;;;;18.97;10.63;;;;;;;25.75;62.41;97024.75;5064630;28;20280;-80
2023/08/16 06:25:22;;;;;;;18.77;10.53;;;;;;;25.83;61.96;97008.81;5065967;28;20220;-83
2023/08/16 06:27:49;;;;;;;19.13;11.63;;;;;;;25.91;60.82;96980.59;5065980;28;20265;-82
2023/08/16 06:30:16;;;;;;;18.40;11.40;;;;;;;26.28;60.13;97023.44;5060061;28;20256;-81
2023/08/16 06:32:45;;;;;;;16.90;10.77;;;;;;;26.38;59.70;97029.38;5054126;28;20198;-85
2023/08/16 06:35:12;;;;;;;16.47;9.40;;;;;;;26.51;59.52;97040.34;5046070;28;20213;-78
2023/08/16 06:37:39;;;;;;;15.50;10.50;;;;;;;26.55;59.19;97026.56;5044547;28;20343;-81
2023/08/16 06:40:08;;;;;;;12.67;10.67;;;;;;;26.62;58.84;97037.34;5052885;28;20223;-82
2023/08/16 06:42:36;;;;;;;16.27;11.93;;;;;;;26.56;58.87;97041.47;5064786;28;20488;-84
2023/08/16 06:45:03;;;;;;;12.83;11.00;;;;;;;26.59;58.89;97042.97;5066418;28;20294;-82
2023/08/16 06:47:32;;;;;;;17.17;10.47;;;;;;;26.59;58.05;97029.69;5049200;28;20232;-81
2023/08/16 06:50:00;;;;;;;19.67;11.30;;;;;;;26.64;58.97;97045.97;5065849;28;20185;-85
2023/08/16 06:52:31;;;;;;;21.67;12.23;;;;;;;26.69;58.96;97048.13;5066163;28;20209;-81
2023/08/16 06:54:58;;;;;;;24.37;11.67;;;;;;;26.90;58.35;97035.94;5064762;28;20190;-83
2023/08/16 06:57:25;;;;;;;24.30;12.30;;;;;;;26.97;57.71;97026.31;5067236;28;20277;-85
2023/08/16 06:59:52;;;;;;;30.60;14.27;;;;;;;27.27;57.59;97033.47;5066557;28;20207;-77
2023/08/16 07:02:20;;;;;;;36.60;18.90;;;;;;;27.51;56.40;97045.03;5067302;28;20190;-77
2023/08/16 07:04:50;;;;;;;30.13;15.40;;;;;;;27.43;55.58;97026.47;5069511;28;20651;-74
2023/08/16 07:07:18;;;;;;;24.03;12.13;;;;;;;27.68;55.23;97050.06;5069170;28;20221;-77
2023/08/16 07:09:45;;;;;;;27.70;13.93;;;;;;;27.73;55.13;97023.78;5069486;28;20242;-77
2023/08/16 07:12:13;;;;;;;20.43;11.87;;;;;;;27.72;54.97;97039.94;5067072;28;20197;-77
2023/08/16 07:14:40;;;;;;;16.73;9.90;;;;;;;27.52;54.66;97041.34;5065871;28;20695;-84
2023/08/16 07:17:08;;;;;;;18.10;9.90;;;;;;;27.71;55.01;97047.06;5067182;28;20200;-82
2023/08/16 07:19:36;;;;;;;13.47;8.83;;;;;;;27.90;53.93;97048.44;5048763;28;20209;-80
2023/08/16 07:22:03;;;;;;;13.10;9.87;;;;;;;27.91;54.40;97042.09;5066302;28;20201;-81
2023/08/16 07:24:30;;;;;;;14.93;10.17;;;;;;;28.06;53.41;97035.03;5068291;28;20225;-78
2023/08/16 07:26:58;;;;;;;14.37;9.20;;;;;;;27.97;54.35;97030.78;5069623;28;20209;-75
2023/08/16 07:29:25;;;;;;;11.43;9.17;;;;;;;28.01;53.88;97042.72;5068067;28;20615;-81
2023/08/16 07:31:54;;;;;;;13.93;8.90;;;;;;;28.08;54.08;97046.34;5069129;28;20189;-79
2023/08/16 07:34:22;;;;;;;15.43;9.23;;;;;;;27.86;54.60;97039.16;5069223;28;20716;-74
2023/08/16 07:36:49;;;;;;;14.50;9.37;;;;;;;27.52;55.63;97031.53;5069250;28;20232;-80
2023/08/16 07:39:17;;;;;;;16.53;8.67;;;;;;;27.55;55.63;97031.22;5068097;28;20609;-76
2023/08/16 07:41:44;;;;;;;13.93;8.73;;;;;;;27.78;55.14;97041.88;5068888;28;20212;-78
2023/08/16 07:44:11;;;;;;;16.57;10.20;;;;;;;27.97;55.25;97031.59;5068409;28;20228;-76
2023/08/16 07:46:38;;;;;;;17.20;9.57;;;;;;;27.71;55.16;97038.25;5067813;28;20263;-83
2023/08/16 07:49:05;;;;;;;18.87;9.63;;;;;;;27.89;54.77;97034.28;5063627;28;21049;-77
2023/08/16 07:51:33;;;;;;;13.87;8.83;;;;;;;28.11;55.38;97022.84;5053995;28;20293;-77
2023/08/16 07:54:00;;;;;;;16.77;9.50;;;;;;;28.37;53.50;97029.59;5049843;28;20212;-83
2023/08/16 07:56:31;;;;;;;14.57;8.33;;;;;;;28.52;53.02;97033.13;5049171;28;20253;-83
2023/08/16 07:58:58;;;;;;;14.67;8.47;;;;;;;28.48;52.58;97029.97;5049416;28;20244;-76
2023/08/16 08:01:26;;;;;;;11.87;8.90;;;;;;;28.51;53.24;97039.47;5049464;28;20629;-82
2023/08/16 08:03:54;;;;;;;9.63;7.27;;;;;;;28.51;52.36;97032.31;5047155;28;20672;-79
2023/08/16 08:06:21;;;;;;;15.30;10.00;;;;;;;28.20;54.00;97010.28;5048734;28;20190;-86
2023/08/16 08:08:48;;;;;;;13.10;8.33;;;;;;;28.17;53.53;97031.97;5049193;28;20252;-81
2023/08/16 08:11:16;;;;;;;11.73;8.33;;;;;;;28.20;53.77;97028.91;5049040;28;20297;-81
2023/08/16 08:13:43;;;;;;;10.13;7.60;;;;;;;28.12;54.15;97036.97;5030912;28;20243;-79
2023/08/16 08:16:10;;;;;;;11.83;8.50;;;;;;;27.99;54.51;97023.44;5048892;28;20197;-79
2023/08/16 08:18:38;;;;;;;11.70;7.63;;;;;;;27.73;55.34;97039.75;5047507;28;20703;-84
2023/08/16 08:21:06;;;;;;;13.50;8.83;;;;;;;27.85;54.97;97038.31;5047170;28;20200;-76
2023/08/16 08:23:34;;;;;;;13.40;7.80;;;;;;;27.90;54.91;97024.47;5046406;28;20194;-79
2023/08/16 08:26:02;;;;;;;12.20;8.60;;;;;;;28.10;54.00;97020.34;5047974;28;20252;-76
2023/08/16 08:28:29;;;;;;;17.97;9.43;;;;;;;28.03;55.04;97009.59;5048239;28;20190;-78
2023/08/16 08:30:56;;;;;;;15.23;8.87;;;;;;;28.39;54.62;97047.06;5047321;28;20693;-77
2023/08/16 08:33:25;;;;;;;16.10;9.07;;;;;;;28.54;53.16;97050.56;5052787;28;20620;-77
2023/08/16 08:35:53;;;;;;;13.23;9.23;;;;;;;28.44;53.58;97047.34;5068039;28;20319;-79
2023/08/16 08:38:21;;;;;;;16.00;9.67;;;;;;;28.64;53.26;97050.38;5068455;28;20196;-82
2023/08/16 08:40:57;;;;;;;15.60;9.93;;;;;;;28.58;53.77;97045.78;5066663;28;20207;-78
2023/08/16 08:43:32;;;;;;;16.93;9.07;;;;;;;28.66;53.29;97059.00;5065719;28;20193;-76
2023/08/16 08:46:12;;;;;;;15.77;8.87;;;;;;;28.62;53.31;97050.56;5082412;28;20243;-80
2023/08/16 08:48:41;;;;;;;15.57;9.27;;;;;;;28.63;53.71;97036.19;5066373;28;20217;-76
2023/08/16 08:51:08;;;;;;;14.80;9.23;;;;;;;28.75;53.11;97033.91;5067801;28;20220;-81
2023/08/16 08:53:36;;;;;;;13.60;8.97;;;;;;;29.02;52.47;97029.78;5067460;28;20388;-74
2023/08/16 08:56:09;;;;;;;15.30;9.47;;;;;;;29.16;51.59;97029.00;5067165;28;20555;-78
2023/08/16 08:58:40;;;;;;;14.53;9.07;;;;;;;29.28;52.39;97049.69;5049220;28;20193;-76
2023/08/16 09:01:09;;;;;;;13.33;8.77;;;;;;;29.33;52.86;97046.41;5049907;28;20513;-84
2023/08/16 09:03:40;;;;;;;12.87;8.37;;;;;;;29.01;53.62;97026.28;5047452;28;20684;-78
2023/08/16 09:06:11;;;;;;;12.63;8.30;;;;;;;28.20;55.67;97015.59;5065177;28;20283;-75
2023/08/16 09:08:41;;;;;;;10.43;8.37;;;;;;;28.34;55.25;96993.50;5067584;28;20194;-80
2023/08/16 09:11:28;;;;;;;13.97;8.13;;;;;;;28.78;55.75;97034.38;5063817;28;20197;-77
2023/08/16 09:13:55;;;;;;;12.73;7.90;;;;;;;28.93;54.02;97035.19;5052214;28;20194;-76
2023/08/16 09:16:23;;;;;;;15.13;9.07;;;;;;;29.24;53.23;97044.88;5045920;28;20190;-81
2023/08/16 09:18:50;;;;;;;13.83;8.97;;;;;;;29.37;53.62;97037.88;5047697;28;20213;-80
2023/08/16 09:21:24;;;;;;;10.33;7.83;;;;;;;29.32;53.00;97026.94;5047167;28;20186;-75
2023/08/16 09:23:55;;;;;;;13.67;7.83;;;;;;;29.22;53.75;97046.91;5047345;28;20206;-76
2023/08/16 09:26:24;;;;;;;12.50;7.73;;;;;;;29.12;53.66;97046.34;5045282;28;20736;-77
2023/08/16 09:28:58;;;;;;;12.97;7.13;;;;;;;29.37;52.80;97042.38;5047752;28;20197;-79
2023/08/16 09:31:31;;;;;;;11.53;7.70;;;;;;;29.44;52.77;97045.94;5046708;28;20188;-82
2023/08/16 09:33:59;;;;;;;9.50;7.60;;;;;;;29.04;53.56;97035.78;5029523;28;20243;-78
2023/08/16 09:36:33;;;;;;;10.97;7.07;;;;;;;28.89;54.85;97038.44;5046711;28;20311;-76
2023/08/16 09:39:09;;;;;;;8.30;7.23;;;;;;;29.02;53.72;97037.81;5047516;28;20194;-83
2023/08/16 09:41:50;;;;;;;8.53;7.67;;;;;;;29.23;53.28;97040.56;5045895;28;20197;-75
2023/08/16 09:44:19;;;;;;;10.97;7.80;;;;;;;29.27;54.32;97041.84;5046643;28;20209;-75
2023/08/16 09:46:46;;;;;;;10.27;7.70;;;;;;;29.17;54.59;97031.47;5045413;28;20288;-79
2023/08/16 09:49:16;;;;;;;13.40;8.00;;;;;;;29.53;53.73;97042.19;5046465;28;20236;-79
2023/08/16 09:51:45;;;;;;;10.03;7.63;;;;;;;29.04;54.42;97033.09;5045056;28;20590;-76
2023/08/16 09:54:17;;;;;;;12.17;7.77;;;;;;;29.29;54.36;97042.47;5046772;28;20543;-75
2023/08/16 09:56:47;;;;;;;8.80;7.77;;;;;;;29.44;53.24;97017.44;5046956;28;20217;-76
2023/08/16 09:59:18;;;;;;;13.73;8.40;;;;;;;29.96;52.57;97040.41;5045315;28;20279;-72
2023/08/16 10:01:50;;;;;;;8.83;6.97;;;;;;;30.09;52.99;97021.84;5053908;28;20199;-75
2023/08/16 10:04:38;;;;;;;12.13;8.00;;;;;;;29.94;52.65;97040.59;5066711;28;20192;-79
2023/08/16 10:07:11;;;;;;;9.87;7.07;;;;;;;29.85;52.68;97049.75;5054764;28;20203;-79
2023/08/16 10:09:43;;;;;;;9.60;7.67;;;;;;;29.94;52.40;97050.44;5044980;28;20744;-77
2023/08/16 10:12:11;;;;;;;13.93;6.97;;;;;;;29.40;53.53;97050.00;5044773;28;20619;-79
2023/08/16 10:14:39;;;;;;;13.33;8.53;;;;;;;29.16;53.58;97029.78;5044859;28;20205;-79
2023/08/16 10:17:08;;;;;;;17.53;7.97;;;;;;;28.57;55.16;96999.63;5046141;28;20275;-75
2023/08/16 10:19:42;;;;;;;11.17;7.17;;;;;;;28.83;55.43;97034.66;5044756;28;20190;-80
2023/08/16 10:22:23;;;;;;;9.70;6.83;;;;;;;29.24;54.02;97007.53;5044415;28;20205;-75
2023/08/16 10:25:11;;;;;;;11.27;7.70;;;;;;;29.25;53.73;97017.19;5046069;28;20325;-77
2023/08/16 10:27:43;;;;;;;11.47;7.70;;;;;;;29.50;53.46;97038.03;5045173;28;20186;-78
2023/08/16 10:30:24;;;;;;;10.27;6.30;;;;;;;29.63;52.77;97040.03;5046072;28;20282;-75
2023/08/16 10:33:16;;;;;;;11.10;7.27;;;;;;;29.12;54.21;97017.81;5029892;28;20186;-76
2023/08/16 10:35:44;;;;;;;9.23;6.10;;;;;;;28.76;54.60;97028.41;5041891;28;20580;-77
2023/08/16 10:38:11;;;;;;;10.83;6.83;;;;;;;28.60;54.89;97023.25;5045756;28;20200;-78
2023/08/16 10:40:39;;;;;;;11.00;6.70;;;;;;;29.00;54.56;97034.50;5044558;28;20186;-79
2023/08/16 10:43:07;;;;;;;10.80;6.97;;;;;;;29.00;53.88;97029.16;5045900;28;20191;-77
2023/08/16 10:45:35;;;;;;;8.10;7.10;;;;;;;29.36;54.08;97035.38;5044831;28;21150;-80
2023/08/16 10:48:10;;;;;;;10.73;7.93;;;;;;;29.69;53.00;97040.09;5044113;28;20200;-78
2023/08/16 10:50:38;;;;;;;11.03;7.43;;;;;;;29.44;53.36;97040.63;5028338;28;20194;-76
2023/08/16 10:53:05;;;;;;;12.17;6.80;;;;;;;29.50;52.67;97015.84;5045273;28;20548;-74
2023/08/16 10:55:33;;;;;;;8.90;6.97;;;;;;;29.69;51.97;97026.75;5046082;28;20209;-75
2023/08/16 10:58:02;;;;;;;9.23;7.07;;;;;;;29.97;51.31;97026.84;5058454;28;20198;-75
2023/08/16 11:00:34;;;;;;;9.90;7.07;;;;;;;30.26;50.77;97002.66;5050080;28;20292;-76
2023/08/16 11:03:04;;;;;;;14.40;6.40;;;;;;;30.39;50.29;97010.81;5050303;28;20284;-78
2023/08/16 11:05:34;;;;;;;10.87;6.73;;;;;;;29.99;51.31;97000.75;5039953;28;20772;-78
2023/08/16 11:08:09;;;;;;;8.13;6.20;;;;;;;29.85;51.26;96987.47;5070129;28;20283;-76
2023/08/16 11:10:37;;;;;;;8.33;7.20;;;;;;;29.77;51.02;97006.31;5068404;28;20205;-76
2023/08/16 11:13:10;;;;;;;10.57;6.53;;;;;;;29.74;51.15;96988.81;5070656;28;20244;-75
2023/08/16 11:15:42;;;;;;;9.43;6.87;;;;;;;30.09;50.69;96990.56;5068057;28;20197;-77
2023/08/16 11:18:09;;;;;;;8.13;6.80;;;;;;;30.14;51.46;97006.03;5064121;28;20196;-76
2023/08/16 11:20:43;;;;;;;8.43;7.00;;;;;;;30.13;50.93;96980.34;5064134;28;20557;-78
2023/08/16 11:23:13;;;;;;;9.10;6.77;;;;;;;30.33;50.74;96982.19;5068903;28;20225;-77
2023/08/16 11:25:41;;;;;;;10.87;8.93;;;;;;;30.21;50.49;96966.84;5069904;28;20785;-77
2023/08/16 11:28:09;;;;;;;10.83;7.30;;;;;;;30.01;50.88;96976.53;5070447;28;20197;-78
2023/08/16 11:30:37;;;;;;;12.60;8.73;;;;;;;29.97;51.71;96972.59;5069869;28;20197;-76
2023/08/16 11:33:12;;;;;;;15.20;9.13;;;;;;;29.20;52.16;96920.88;5069482;28;20671;-77